sensor_id;sensor_type;location;lat;lon;timestamp;P1;durP1;ratioP1;P2;durP2;ratioP2
12635;SDS011;6383;50.830;7.210;2024-03-07T00:01:26;28.85;;;26.17;;
12635;SDS011;6383;50.830;7.210;2024-03-07T00:03:55;30.85;;;27.85;;
12635;SDS011;6383;50.830;7.210;2024-03-07T00:06:23;31.00;;;27.92;;
12635;SDS011;6383;50.830;7.210;2024-03-07T00:08:51;32.10;;;29.05;;
12635;SDS011;6383;50.830;7.210;2024-03-07T00:11:23;30.20;;;27.30;;
12635;SDS011;6383;50.830;7.210;2024-03-07T00:13:51;31.15;;;27.95;;
12635;SDS011;6383;50.830;7.210;2024-03-07T00:16:19;29.42;;;26.33;;
12635;SDS011;6383;50.830;7.210;2024-03-07T00:18:48;29.38;;;26.52;;
12635;SDS011;6383;50.830;7.210;2024-03-07T00:21:17;29.85;;;26.95;;
12635;SDS011;6383;50.830;7.210;2024-03-07T00:23:46;30.65;;;27.75;;
12635;SDS011;6383;50.830;7.210;2024-03-07T00:26:15;29.80;;;26.80;;
12635;SDS011;6383;50.830;7.210;2024-03-07T00:28:43;30.17;;;27.23;;
12635;SDS011;6383;50.830;7.210;2024-03-07T00:31:09;30.75;;;27.65;;
12635;SDS011;6383;50.830;7.210;2024-03-07T00:33:38;29.23;;;26.52;;
12635;SDS011;6383;50.830;7.210;2024-03-07T00:36:08;28.05;;;25.23;;
12635;SDS011;6383;50.830;7.210;2024-03-07T00:38:36;29.70;;;26.75;;
12635;SDS011;6383;50.830;7.210;2024-03-07T00:41:05;31.35;;;27.20;;
12635;SDS011;6383;50.830;7.210;2024-03-07T00:43:32;30.98;;;27.85;;
12635;SDS011;6383;50.830;7.210;2024-03-07T00:46:01;30.75;;;27.67;;
12635;SDS011;6383;50.830;7.210;2024-03-07T00:48:29;30.08;;;26.75;;
12635;SDS011;6383;50.830;7.210;2024-03-07T00:50:57;29.70;;;26.58;;
12635;SDS011;6383;50.830;7.210;2024-03-07T00:53:27;29.60;;;26.67;;
12635;SDS011;6383;50.830;7.210;2024-03-07T00:55:56;30.57;;;27.67;;
12635;SDS011;6383;50.830;7.210;2024-03-07T00:58:24;29.33;;;26.35;;
12635;SDS011;6383;50.830;7.210;2024-03-07T01:00:55;30.08;;;27.08;;
12635;SDS011;6383;50.830;7.210;2024-03-07T01:03:25;30.38;;;27.30;;
12635;SDS011;6383;50.830;7.210;2024-03-07T01:05:54;28.65;;;25.75;;
12635;SDS011;6383;50.830;7.210;2024-03-07T01:08:22;28.50;;;25.55;;
12635;SDS011;6383;50.830;7.210;2024-03-07T01:10:52;28.80;;;25.90;;
12635;SDS011;6383;50.830;7.210;2024-03-07T01:13:20;29.00;;;26.08;;
12635;SDS011;6383;50.830;7.210;2024-03-07T01:15:51;28.13;;;25.40;;
12635;SDS011;6383;50.830;7.210;2024-03-07T01:18:20;29.73;;;26.92;;
12635;SDS011;6383;50.830;7.210;2024-03-07T01:20:49;29.23;;;26.23;;
12635;SDS011;6383;50.830;7.210;2024-03-07T01:23:18;27.05;;;24.25;;
12635;SDS011;6383;50.830;7.210;2024-03-07T01:25:50;30.65;;;27.58;;
12635;SDS011;6383;50.830;7.210;2024-03-07T01:28:19;29.13;;;26.20;;
12635;SDS011;6383;50.830;7.210;2024-03-07T01:30:48;27.83;;;24.88;;
12635;SDS011;6383;50.830;7.210;2024-03-07T01:33:18;28.58;;;25.58;;
12635;SDS011;6383;50.830;7.210;2024-03-07T01:35:47;28.40;;;25.60;;
12635;SDS011;6383;50.830;7.210;2024-03-07T01:38:15;28.27;;;25.45;;
12635;SDS011;6383;50.830;7.210;2024-03-07T01:40:45;28.17;;;25.33;;
12635;SDS011;6383;50.830;7.210;2024-03-07T01:43:12;30.15;;;25.35;;
12635;SDS011;6383;50.830;7.210;2024-03-07T01:45:41;27.65;;;24.92;;
12635;SDS011;6383;50.830;7.210;2024-03-07T01:48:10;29.27;;;26.15;;
12635;SDS011;6383;50.830;7.210;2024-03-07T01:50:44;27.50;;;24.73;;
12635;SDS011;6383;50.830;7.210;2024-03-07T01:53:12;29.00;;;26.00;;
12635;SDS011;6383;50.830;7.210;2024-03-07T01:55:42;28.65;;;25.65;;
12635;SDS011;6383;50.830;7.210;2024-03-07T01:58:10;27.55;;;24.80;;
12635;SDS011;6383;50.830;7.210;2024-03-07T02:00:43;27.52;;;24.83;;
12635;SDS011;6383;50.830;7.210;2024-03-07T02:03:12;27.80;;;25.10;;
12635;SDS011;6383;50.830;7.210;2024-03-07T02:05:40;26.50;;;23.77;;
12635;SDS011;6383;50.830;7.210;2024-03-07T02:08:08;29.45;;;25.77;;
12635;SDS011;6383;50.830;7.210;2024-03-07T02:10:36;27.92;;;25.13;;
12635;SDS011;6383;50.830;7.210;2024-03-07T02:13:05;28.42;;;25.70;;
12635;SDS011;6383;50.830;7.210;2024-03-07T02:15:34;28.70;;;25.80;;
12635;SDS011;6383;50.830;7.210;2024-03-07T02:18:04;27.77;;;24.92;;
12635;SDS011;6383;50.830;7.210;2024-03-07T02:20:33;28.92;;;26.02;;
12635;SDS011;6383;50.830;7.210;2024-03-07T02:23:03;29.40;;;25.80;;
12635;SDS011;6383;50.830;7.210;2024-03-07T02:25:31;28.48;;;25.65;;
12635;SDS011;6383;50.830;7.210;2024-03-07T02:28:04;28.95;;;26.02;;
12635;SDS011;6383;50.830;7.210;2024-03-07T02:30:34;28.95;;;25.95;;
12635;SDS011;6383;50.830;7.210;2024-03-07T02:33:03;28.53;;;25.43;;
12635;SDS011;6383;50.830;7.210;2024-03-07T02:35:34;28.33;;;25.33;;
12635;SDS011;6383;50.830;7.210;2024-03-07T02:38:06;28.35;;;25.40;;
12635;SDS011;6383;50.830;7.210;2024-03-07T02:40:35;28.75;;;25.73;;
12635;SDS011;6383;50.830;7.210;2024-03-07T02:43:04;29.77;;;26.67;;
12635;SDS011;6383;50.830;7.210;2024-03-07T02:45:34;28.83;;;25.88;;
12635;SDS011;6383;50.830;7.210;2024-03-07T02:48:02;29.23;;;26.10;;
12635;SDS011;6383;50.830;7.210;2024-03-07T02:50:32;27.65;;;24.75;;
12635;SDS011;6383;50.830;7.210;2024-03-07T02:53:01;27.02;;;24.27;;
12635;SDS011;6383;50.830;7.210;2024-03-07T02:55:32;28.98;;;25.88;;
12635;SDS011;6383;50.830;7.210;2024-03-07T02:58:01;29.17;;;26.00;;
12635;SDS011;6383;50.830;7.210;2024-03-07T03:00:30;29.17;;;26.10;;
12635;SDS011;6383;50.830;7.210;2024-03-07T03:02:58;28.27;;;25.38;;
12635;SDS011;6383;50.830;7.210;2024-03-07T03:05:27;28.70;;;25.73;;
12635;SDS011;6383;50.830;7.210;2024-03-07T03:07:55;29.02;;;26.02;;
12635;SDS011;6383;50.830;7.210;2024-03-07T03:10:23;30.15;;;27.10;;
12635;SDS011;6383;50.830;7.210;2024-03-07T03:12:54;30.38;;;27.08;;
12635;SDS011;6383;50.830;7.210;2024-03-07T03:15:23;29.98;;;26.70;;
12635;SDS011;6383;50.830;7.210;2024-03-07T03:17:51;30.17;;;26.98;;
12635;SDS011;6383;50.830;7.210;2024-03-07T03:20:20;30.85;;;27.65;;
12635;SDS011;6383;50.830;7.210;2024-03-07T03:23:01;29.58;;;26.50;;
12635;SDS011;6383;50.830;7.210;2024-03-07T03:25:31;29.70;;;26.57;;
12635;SDS011;6383;50.830;7.210;2024-03-07T03:28:02;29.63;;;26.42;;
12635;SDS011;6383;50.830;7.210;2024-03-07T03:30:34;28.98;;;25.88;;
12635;SDS011;6383;50.830;7.210;2024-03-07T03:33:02;28.52;;;25.13;;
12635;SDS011;6383;50.830;7.210;2024-03-07T03:35:31;30.17;;;26.58;;
12635;SDS011;6383;50.830;7.210;2024-03-07T03:38:00;29.70;;;26.52;;
12635;SDS011;6383;50.830;7.210;2024-03-07T03:40:28;28.85;;;25.73;;
12635;SDS011;6383;50.830;7.210;2024-03-07T03:42:56;28.33;;;25.35;;
12635;SDS011;6383;50.830;7.210;2024-03-07T03:45:28;29.02;;;26.02;;
12635;SDS011;6383;50.830;7.210;2024-03-07T03:47:56;29.23;;;25.83;;
12635;SDS011;6383;50.830;7.210;2024-03-07T03:50:23;27.60;;;24.67;;
12635;SDS011;6383;50.830;7.210;2024-03-07T03:52:51;28.98;;;25.85;;
12635;SDS011;6383;50.830;7.210;2024-03-07T03:55:20;28.50;;;25.52;;
12635;SDS011;6383;50.830;7.210;2024-03-07T03:57:48;28.73;;;25.67;;
12635;SDS011;6383;50.830;7.210;2024-03-07T04:00:16;28.10;;;25.10;;
12635;SDS011;6383;50.830;7.210;2024-03-07T04:02:46;31.15;;;27.17;;
12635;SDS011;6383;50.830;7.210;2024-03-07T04:05:16;29.90;;;26.70;;
12635;SDS011;6383;50.830;7.210;2024-03-07T04:07:45;29.17;;;25.75;;
12635;SDS011;6383;50.830;7.210;2024-03-07T04:10:14;31.58;;;26.70;;
12635;SDS011;6383;50.830;7.210;2024-03-07T04:12:44;29.95;;;26.75;;
12635;SDS011;6383;50.830;7.210;2024-03-07T04:15:13;29.73;;;26.63;;
12635;SDS011;6383;50.830;7.210;2024-03-07T04:17:43;30.13;;;26.95;;
12635;SDS011;6383;50.830;7.210;2024-03-07T04:20:15;29.35;;;26.25;;
12635;SDS011;6383;50.830;7.210;2024-03-07T04:22:43;31.70;;;26.80;;
12635;SDS011;6383;50.830;7.210;2024-03-07T04:25:13;29.08;;;26.02;;
12635;SDS011;6383;50.830;7.210;2024-03-07T04:27:40;28.88;;;25.70;;
12635;SDS011;6383;50.830;7.210;2024-03-07T04:30:08;29.38;;;26.25;;
12635;SDS011;6383;50.830;7.210;2024-03-07T04:32:38;30.23;;;25.70;;
12635;SDS011;6383;50.830;7.210;2024-03-07T04:35:09;28.67;;;25.67;;
12635;SDS011;6383;50.830;7.210;2024-03-07T04:37:41;29.60;;;25.60;;
12635;SDS011;6383;50.830;7.210;2024-03-07T04:40:10;28.60;;;25.43;;
12635;SDS011;6383;50.830;7.210;2024-03-07T04:42:43;29.98;;;26.77;;
12635;SDS011;6383;50.830;7.210;2024-03-07T04:45:13;28.30;;;25.30;;
12635;SDS011;6383;50.830;7.210;2024-03-07T04:47:43;28.38;;;25.42;;
12635;SDS011;6383;50.830;7.210;2024-03-07T04:50:12;27.23;;;24.45;;
12635;SDS011;6383;50.830;7.210;2024-03-07T04:52:46;28.42;;;24.90;;
12635;SDS011;6383;50.830;7.210;2024-03-07T04:55:16;26.23;;;23.55;;
12635;SDS011;6383;50.830;7.210;2024-03-07T04:57:43;29.05;;;25.88;;
12635;SDS011;6383;50.830;7.210;2024-03-07T05:00:13;28.60;;;25.42;;
12635;SDS011;6383;50.830;7.210;2024-03-07T05:02:45;28.05;;;25.05;;
12635;SDS011;6383;50.830;7.210;2024-03-07T05:05:15;28.38;;;25.25;;
12635;SDS011;6383;50.830;7.210;2024-03-07T05:07:50;28.50;;;24.73;;
12635;SDS011;6383;50.830;7.210;2024-03-07T05:10:19;27.45;;;24.65;;
12635;SDS011;6383;50.830;7.210;2024-03-07T05:12:48;27.02;;;24.23;;
12635;SDS011;6383;50.830;7.210;2024-03-07T05:15:16;27.33;;;24.55;;
12635;SDS011;6383;50.830;7.210;2024-03-07T05:17:44;28.27;;;25.00;;
12635;SDS011;6383;50.830;7.210;2024-03-07T05:20:11;27.35;;;24.55;;
12635;SDS011;6383;50.830;7.210;2024-03-07T05:22:39;27.27;;;24.30;;
12635;SDS011;6383;50.830;7.210;2024-03-07T05:25:11;26.92;;;24.02;;
12635;SDS011;6383;50.830;7.210;2024-03-07T05:27:40;28.02;;;25.13;;
12635;SDS011;6383;50.830;7.210;2024-03-07T05:30:10;27.85;;;24.35;;
12635;SDS011;6383;50.830;7.210;2024-03-07T05:32:41;28.98;;;25.05;;
12635;SDS011;6383;50.830;7.210;2024-03-07T05:35:09;27.05;;;24.15;;
12635;SDS011;6383;50.830;7.210;2024-03-07T05:37:39;28.27;;;24.17;;
12635;SDS011;6383;50.830;7.210;2024-03-07T05:40:17;27.00;;;23.95;;
12635;SDS011;6383;50.830;7.210;2024-03-07T05:42:46;28.60;;;25.52;;
12635;SDS011;6383;50.830;7.210;2024-03-07T05:45:15;28.43;;;25.43;;
12635;SDS011;6383;50.830;7.210;2024-03-07T05:47:45;26.77;;;23.98;;
12635;SDS011;6383;50.830;7.210;2024-03-07T05:50:15;29.17;;;25.85;;
12635;SDS011;6383;50.830;7.210;2024-03-07T05:52:44;28.63;;;25.50;;
12635;SDS011;6383;50.830;7.210;2024-03-07T05:55:12;29.75;;;26.27;;
12635;SDS011;6383;50.830;7.210;2024-03-07T05:57:45;31.33;;;27.17;;
12635;SDS011;6383;50.830;7.210;2024-03-07T06:00:14;30.05;;;26.67;;
12635;SDS011;6383;50.830;7.210;2024-03-07T06:02:53;29.48;;;26.30;;
12635;SDS011;6383;50.830;7.210;2024-03-07T06:05:22;30.10;;;27.05;;
12635;SDS011;6383;50.830;7.210;2024-03-07T06:07:51;29.77;;;26.37;;
12635;SDS011;6383;50.830;7.210;2024-03-07T06:10:19;29.05;;;25.58;;
12635;SDS011;6383;50.830;7.210;2024-03-07T06:12:51;28.73;;;25.55;;
12635;SDS011;6383;50.830;7.210;2024-03-07T06:15:18;28.48;;;25.35;;
12635;SDS011;6383;50.830;7.210;2024-03-07T06:17:47;30.57;;;27.27;;
12635;SDS011;6383;50.830;7.210;2024-03-07T06:20:15;29.08;;;26.13;;
12635;SDS011;6383;50.830;7.210;2024-03-07T06:22:50;27.90;;;24.80;;
12635;SDS011;6383;50.830;7.210;2024-03-07T06:25:19;31.50;;;26.42;;
12635;SDS011;6383;50.830;7.210;2024-03-07T06:28:02;28.85;;;25.85;;
12635;SDS011;6383;50.830;7.210;2024-03-07T06:30:36;29.23;;;25.80;;
12635;SDS011;6383;50.830;7.210;2024-03-07T06:33:07;27.97;;;25.07;;
12635;SDS011;6383;50.830;7.210;2024-03-07T06:35:36;28.67;;;24.23;;
12635;SDS011;6383;50.830;7.210;2024-03-07T06:38:06;27.67;;;24.60;;
12635;SDS011;6383;50.830;7.210;2024-03-07T06:40:36;27.98;;;24.63;;
12635;SDS011;6383;50.830;7.210;2024-03-07T06:43:05;28.47;;;25.23;;
12635;SDS011;6383;50.830;7.210;2024-03-07T06:45:37;28.42;;;25.48;;
12635;SDS011;6383;50.830;7.210;2024-03-07T06:48:07;27.38;;;24.33;;
12635;SDS011;6383;50.830;7.210;2024-03-07T06:50:36;28.65;;;24.90;;
12635;SDS011;6383;50.830;7.210;2024-03-07T06:53:06;28.60;;;25.50;;
12635;SDS011;6383;50.830;7.210;2024-03-07T06:55:35;27.23;;;24.38;;
12635;SDS011;6383;50.830;7.210;2024-03-07T06:58:02;31.65;;;25.08;;
12635;SDS011;6383;50.830;7.210;2024-03-07T07:00:33;28.73;;;25.73;;
12635;SDS011;6383;50.830;7.210;2024-03-07T07:03:03;36.03;;;32.28;;
12635;SDS011;6383;50.830;7.210;2024-03-07T07:05:32;32.75;;;27.50;;
12635;SDS011;6383;50.830;7.210;2024-03-07T07:08:01;29.98;;;25.40;;
12635;SDS011;6383;50.830;7.210;2024-03-07T07:10:30;28.40;;;25.33;;
12635;SDS011;6383;50.830;7.210;2024-03-07T07:12:59;28.73;;;24.65;;
12635;SDS011;6383;50.830;7.210;2024-03-07T07:15:28;31.77;;;26.58;;
12635;SDS011;6383;50.830;7.210;2024-03-07T07:17:57;28.25;;;25.25;;
12635;SDS011;6383;50.830;7.210;2024-03-07T07:20:26;30.50;;;26.53;;
12635;SDS011;6383;50.830;7.210;2024-03-07T07:22:55;29.98;;;26.27;;
12635;SDS011;6383;50.830;7.210;2024-03-07T07:25:25;31.00;;;27.70;;
12635;SDS011;6383;50.830;7.210;2024-03-07T07:27:53;31.00;;;27.50;;
12635;SDS011;6383;50.830;7.210;2024-03-07T07:30:22;31.37;;;27.97;;
12635;SDS011;6383;50.830;7.210;2024-03-07T07:32:52;32.75;;;28.05;;
12635;SDS011;6383;50.830;7.210;2024-03-07T07:35:23;32.05;;;28.58;;
12635;SDS011;6383;50.830;7.210;2024-03-07T07:37:52;32.08;;;28.75;;
12635;SDS011;6383;50.830;7.210;2024-03-07T07:40:23;33.50;;;30.02;;
12635;SDS011;6383;50.830;7.210;2024-03-07T07:42:53;35.33;;;28.35;;
12635;SDS011;6383;50.830;7.210;2024-03-07T07:45:22;33.92;;;30.42;;
12635;SDS011;6383;50.830;7.210;2024-03-07T07:47:51;33.97;;;29.17;;
12635;SDS011;6383;50.830;7.210;2024-03-07T07:50:23;32.33;;;27.92;;
12635;SDS011;6383;50.830;7.210;2024-03-07T07:52:52;30.13;;;27.10;;
12635;SDS011;6383;50.830;7.210;2024-03-07T07:55:20;32.58;;;28.63;;
12635;SDS011;6383;50.830;7.210;2024-03-07T07:57:50;30.25;;;27.00;;
12635;SDS011;6383;50.830;7.210;2024-03-07T08:00:21;30.98;;;27.85;;
12635;SDS011;6383;50.830;7.210;2024-03-07T08:02:52;30.73;;;27.50;;
12635;SDS011;6383;50.830;7.210;2024-03-07T08:05:24;29.40;;;26.27;;
12635;SDS011;6383;50.830;7.210;2024-03-07T08:07:55;28.38;;;25.48;;
12635;SDS011;6383;50.830;7.210;2024-03-07T08:10:25;30.77;;;26.13;;
12635;SDS011;6383;50.830;7.210;2024-03-07T08:12:56;28.02;;;25.23;;
12635;SDS011;6383;50.830;7.210;2024-03-07T08:15:25;28.25;;;24.98;;
12635;SDS011;6383;50.830;7.210;2024-03-07T08:17:54;26.87;;;24.17;;
12635;SDS011;6383;50.830;7.210;2024-03-07T08:20:25;26.67;;;23.88;;
12635;SDS011;6383;50.830;7.210;2024-03-07T08:22:54;25.48;;;22.92;;
12635;SDS011;6383;50.830;7.210;2024-03-07T08:25:25;25.85;;;23.08;;
12635;SDS011;6383;50.830;7.210;2024-03-07T08:27:56;25.33;;;22.73;;
12635;SDS011;6383;50.830;7.210;2024-03-07T08:30:26;25.08;;;22.38;;
12635;SDS011;6383;50.830;7.210;2024-03-07T08:32:56;25.13;;;22.52;;
12635;SDS011;6383;50.830;7.210;2024-03-07T08:35:27;24.88;;;22.17;;
12635;SDS011;6383;50.830;7.210;2024-03-07T08:37:57;23.55;;;21.15;;
12635;SDS011;6383;50.830;7.210;2024-03-07T08:40:25;23.05;;;20.75;;
12635;SDS011;6383;50.830;7.210;2024-03-07T08:42:58;24.45;;;21.38;;
12635;SDS011;6383;50.830;7.210;2024-03-07T08:45:28;23.02;;;20.73;;
12635;SDS011;6383;50.830;7.210;2024-03-07T08:48:00;22.98;;;20.60;;
12635;SDS011;6383;50.830;7.210;2024-03-07T08:50:32;22.77;;;20.15;;
12635;SDS011;6383;50.830;7.210;2024-03-07T08:53:01;24.65;;;20.45;;
12635;SDS011;6383;50.830;7.210;2024-03-07T08:55:30;22.40;;;20.05;;
12635;SDS011;6383;50.830;7.210;2024-03-07T08:57:59;23.48;;;19.60;;
12635;SDS011;6383;50.830;7.210;2024-03-07T09:00:27;23.02;;;19.08;;
12635;SDS011;6383;50.830;7.210;2024-03-07T09:02:57;20.77;;;18.65;;
12635;SDS011;6383;50.830;7.210;2024-03-07T09:05:27;21.60;;;19.00;;
12635;SDS011;6383;50.830;7.210;2024-03-07T09:07:57;22.00;;;18.80;;
12635;SDS011;6383;50.830;7.210;2024-03-07T09:10:26;22.98;;;20.40;;
12635;SDS011;6383;50.830;7.210;2024-03-07T09:12:57;20.45;;;18.30;;
12635;SDS011;6383;50.830;7.210;2024-03-07T09:15:26;20.10;;;18.00;;
12635;SDS011;6383;50.830;7.210;2024-03-07T09:17:54;20.15;;;17.42;;
12635;SDS011;6383;50.830;7.210;2024-03-07T09:20:23;20.87;;;18.73;;
12635;SDS011;6383;50.830;7.210;2024-03-07T09:22:51;23.10;;;18.58;;
12635;SDS011;6383;50.830;7.210;2024-03-07T09:25:22;20.73;;;17.98;;
12635;SDS011;6383;50.830;7.210;2024-03-07T09:27:51;20.35;;;18.20;;
12635;SDS011;6383;50.830;7.210;2024-03-07T09:30:21;20.45;;;17.02;;
12635;SDS011;6383;50.830;7.210;2024-03-07T09:32:52;19.45;;;17.45;;
12635;SDS011;6383;50.830;7.210;2024-03-07T09:35:22;21.73;;;18.70;;
12635;SDS011;6383;50.830;7.210;2024-03-07T09:37:51;19.80;;;17.70;;
12635;SDS011;6383;50.830;7.210;2024-03-07T09:40:20;20.90;;;18.20;;
12635;SDS011;6383;50.830;7.210;2024-03-07T09:42:53;20.73;;;18.53;;
12635;SDS011;6383;50.830;7.210;2024-03-07T09:45:27;20.63;;;18.42;;
12635;SDS011;6383;50.830;7.210;2024-03-07T09:47:58;19.55;;;17.33;;
12635;SDS011;6383;50.830;7.210;2024-03-07T09:50:29;23.03;;;18.97;;
12635;SDS011;6383;50.830;7.210;2024-03-07T09:52:59;21.08;;;18.88;;
12635;SDS011;6383;50.830;7.210;2024-03-07T09:55:30;21.52;;;18.27;;
12635;SDS011;6383;50.830;7.210;2024-03-07T09:58:00;21.57;;;17.70;;
12635;SDS011;6383;50.830;7.210;2024-03-07T10:00:29;19.42;;;17.40;;
12635;SDS011;6383;50.830;7.210;2024-03-07T10:02:59;21.25;;;18.95;;
12635;SDS011;6383;50.830;7.210;2024-03-07T10:05:33;22.20;;;18.00;;
12635;SDS011;6383;50.830;7.210;2024-03-07T10:08:02;21.40;;;19.20;;
12635;SDS011;6383;50.830;7.210;2024-03-07T10:10:32;20.55;;;18.30;;
12635;SDS011;6383;50.830;7.210;2024-03-07T10:13:01;21.77;;;18.75;;
12635;SDS011;6383;50.830;7.210;2024-03-07T10:15:31;19.02;;;16.83;;
12635;SDS011;6383;50.830;7.210;2024-03-07T10:18:00;23.13;;;18.48;;
12635;SDS011;6383;50.830;7.210;2024-03-07T10:20:29;21.80;;;18.38;;
12635;SDS011;6383;50.830;7.210;2024-03-07T10:22:58;19.93;;;17.73;;
12635;SDS011;6383;50.830;7.210;2024-03-07T10:25:28;21.15;;;18.38;;
12635;SDS011;6383;50.830;7.210;2024-03-07T10:27:58;21.42;;;17.95;;
12635;SDS011;6383;50.830;7.210;2024-03-07T10:30:26;22.30;;;18.63;;
12635;SDS011;6383;50.830;7.210;2024-03-07T10:32:56;20.30;;;17.80;;
12635;SDS011;6383;50.830;7.210;2024-03-07T10:35:26;19.77;;;17.27;;
12635;SDS011;6383;50.830;7.210;2024-03-07T10:37:55;20.60;;;18.40;;
12635;SDS011;6383;50.830;7.210;2024-03-07T10:40:28;18.95;;;16.00;;
12635;SDS011;6383;50.830;7.210;2024-03-07T10:42:56;20.33;;;18.20;;
12635;SDS011;6383;50.830;7.210;2024-03-07T10:45:31;20.67;;;17.60;;
12635;SDS011;6383;50.830;7.210;2024-03-07T10:48:03;21.00;;;17.92;;
12635;SDS011;6383;50.830;7.210;2024-03-07T10:50:39;18.23;;;16.33;;
12635;SDS011;6383;50.830;7.210;2024-03-07T10:53:18;19.20;;;16.38;;
12635;SDS011;6383;50.830;7.210;2024-03-07T10:56:01;18.55;;;16.13;;
12635;SDS011;6383;50.830;7.210;2024-03-07T10:58:49;18.08;;;16.00;;
12635;SDS011;6383;50.830;7.210;2024-03-07T11:01:28;18.40;;;16.42;;
12635;SDS011;6383;50.830;7.210;2024-03-07T11:04:01;18.45;;;16.20;;
12635;SDS011;6383;50.830;7.210;2024-03-07T11:06:32;19.48;;;17.40;;
12635;SDS011;6383;50.830;7.210;2024-03-07T11:09:02;18.88;;;16.90;;
12635;SDS011;6383;50.830;7.210;2024-03-07T11:11:37;19.83;;;16.52;;
12635;SDS011;6383;50.830;7.210;2024-03-07T11:14:08;19.77;;;17.67;;
12635;SDS011;6383;50.830;7.210;2024-03-07T11:16:40;22.30;;;16.38;;
12635;SDS011;6383;50.830;7.210;2024-03-07T11:19:17;18.52;;;16.52;;
12635;SDS011;6383;50.830;7.210;2024-03-07T11:21:47;19.67;;;17.30;;
12635;SDS011;6383;50.830;7.210;2024-03-07T11:24:27;19.50;;;16.45;;
12635;SDS011;6383;50.830;7.210;2024-03-07T11:27:02;18.38;;;16.40;;
12635;SDS011;6383;50.830;7.210;2024-03-07T11:29:41;18.15;;;16.15;;
12635;SDS011;6383;50.830;7.210;2024-03-07T11:32:13;18.05;;;15.60;;
12635;SDS011;6383;50.830;7.210;2024-03-07T11:34:44;16.98;;;14.65;;
12635;SDS011;6383;50.830;7.210;2024-03-07T11:37:18;16.23;;;14.55;;
12635;SDS011;6383;50.830;7.210;2024-03-07T11:39:50;16.88;;;14.82;;
12635;SDS011;6383;50.830;7.210;2024-03-07T11:42:24;14.97;;;13.47;;
12635;SDS011;6383;50.830;7.210;2024-03-07T11:44:54;15.47;;;13.50;;
12635;SDS011;6383;50.830;7.210;2024-03-07T11:47:26;15.43;;;13.82;;
12635;SDS011;6383;50.830;7.210;2024-03-07T11:49:56;14.85;;;12.23;;
12635;SDS011;6383;50.830;7.210;2024-03-07T11:52:25;14.05;;;12.60;;
12635;SDS011;6383;50.830;7.210;2024-03-07T11:54:53;13.43;;;12.02;;
12635;SDS011;6383;50.830;7.210;2024-03-07T11:57:31;12.13;;;10.98;;
12635;SDS011;6383;50.830;7.210;2024-03-07T12:00:01;14.00;;;12.02;;
12635;SDS011;6383;50.830;7.210;2024-03-07T12:02:37;12.70;;;11.35;;
12635;SDS011;6383;50.830;7.210;2024-03-07T12:05:06;11.70;;;10.50;;
12635;SDS011;6383;50.830;7.210;2024-03-07T12:07:36;12.07;;;10.65;;
12635;SDS011;6383;50.830;7.210;2024-03-07T12:10:04;12.50;;;11.30;;
12635;SDS011;6383;50.830;7.210;2024-03-07T12:12:34;13.15;;;11.27;;
12635;SDS011;6383;50.830;7.210;2024-03-07T12:15:04;12.20;;;10.95;;
12635;SDS011;6383;50.830;7.210;2024-03-07T12:17:38;12.45;;;11.15;;
12635;SDS011;6383;50.830;7.210;2024-03-07T12:20:08;15.85;;;11.02;;
12635;SDS011;6383;50.830;7.210;2024-03-07T12:22:52;13.50;;;12.05;;
12635;SDS011;6383;50.830;7.210;2024-03-07T12:25:24;13.17;;;10.90;;
12635;SDS011;6383;50.830;7.210;2024-03-07T12:28:04;13.70;;;11.13;;
12635;SDS011;6383;50.830;7.210;2024-03-07T12:30:48;13.63;;;11.90;;
12635;SDS011;6383;50.830;7.210;2024-03-07T12:33:20;14.43;;;11.53;;
12635;SDS011;6383;50.830;7.210;2024-03-07T12:35:51;12.65;;;11.35;;
12635;SDS011;6383;50.830;7.210;2024-03-07T12:38:26;12.70;;;11.40;;
12635;SDS011;6383;50.830;7.210;2024-03-07T12:41:02;12.95;;;11.55;;
12635;SDS011;6383;50.830;7.210;2024-03-07T12:43:34;12.57;;;11.13;;
12635;SDS011;6383;50.830;7.210;2024-03-07T12:46:04;17.20;;;11.52;;
12635;SDS011;6383;50.830;7.210;2024-03-07T12:48:34;13.05;;;11.45;;
12635;SDS011;6383;50.830;7.210;2024-03-07T12:51:06;14.98;;;11.20;;
12635;SDS011;6383;50.830;7.210;2024-03-07T12:53:34;12.87;;;11.20;;
12635;SDS011;6383;50.830;7.210;2024-03-07T12:56:02;14.48;;;11.38;;
12635;SDS011;6383;50.830;7.210;2024-03-07T12:58:31;13.43;;;12.02;;
12635;SDS011;6383;50.830;7.210;2024-03-07T13:00:59;12.43;;;10.52;;
12635;SDS011;6383;50.830;7.210;2024-03-07T13:03:29;12.70;;;10.85;;
12635;SDS011;6383;50.830;7.210;2024-03-07T13:05:59;11.95;;;10.75;;
12635;SDS011;6383;50.830;7.210;2024-03-07T13:08:28;11.60;;;10.05;;
12635;SDS011;6383;50.830;7.210;2024-03-07T13:10:58;12.83;;;10.37;;
12635;SDS011;6383;50.830;7.210;2024-03-07T13:13:27;11.77;;;10.55;;
12635;SDS011;6383;50.830;7.210;2024-03-07T13:15:56;11.65;;;10.30;;
12635;SDS011;6383;50.830;7.210;2024-03-07T13:18:25;12.27;;;10.98;;
12635;SDS011;6383;50.830;7.210;2024-03-07T13:20:54;12.20;;;10.65;;
12635;SDS011;6383;50.830;7.210;2024-03-07T13:23:25;11.93;;;10.63;;
12635;SDS011;6383;50.830;7.210;2024-03-07T13:25:55;12.48;;;11.18;;
12635;SDS011;6383;50.830;7.210;2024-03-07T13:28:25;14.52;;;11.18;;
12635;SDS011;6383;50.830;7.210;2024-03-07T13:30:56;12.18;;;10.75;;
12635;SDS011;6383;50.830;7.210;2024-03-07T13:33:23;11.75;;;10.55;;
12635;SDS011;6383;50.830;7.210;2024-03-07T13:35:52;12.27;;;10.75;;
12635;SDS011;6383;50.830;7.210;2024-03-07T13:38:21;11.70;;;10.50;;
12635;SDS011;6383;50.830;7.210;2024-03-07T13:40:51;13.02;;;11.18;;
12635;SDS011;6383;50.830;7.210;2024-03-07T13:43:20;12.63;;;10.90;;
12635;SDS011;6383;50.830;7.210;2024-03-07T13:45:50;12.15;;;10.18;;
12635;SDS011;6383;50.830;7.210;2024-03-07T13:48:19;11.40;;;10.20;;
12635;SDS011;6383;50.830;7.210;2024-03-07T13:50:49;11.90;;;10.60;;
12635;SDS011;6383;50.830;7.210;2024-03-07T13:53:20;13.15;;;10.38;;
12635;SDS011;6383;50.830;7.210;2024-03-07T13:59:24;13.27;;;10.45;;
12635;SDS011;6383;50.830;7.210;2024-03-07T14:02:09;12.52;;;10.30;;
12635;SDS011;6383;50.830;7.210;2024-03-07T14:05:03;10.93;;;9.50;;
12635;SDS011;6383;50.830;7.210;2024-03-07T14:08:01;10.45;;;9.35;;
12635;SDS011;6383;50.830;7.210;2024-03-07T14:14:17;12.93;;;9.73;;
12635;SDS011;6383;50.830;7.210;2024-03-07T14:23:37;10.73;;;9.52;;
12635;SDS011;6383;50.830;7.210;2024-03-07T14:26:38;12.90;;;10.73;;
12635;SDS011;6383;50.830;7.210;2024-03-07T14:29:23;12.95;;;11.00;;
12635;SDS011;6383;50.830;7.210;2024-03-07T14:32:04;11.85;;;10.65;;
12635;SDS011;6383;50.830;7.210;2024-03-07T14:34:36;11.68;;;10.48;;
12635;SDS011;6383;50.830;7.210;2024-03-07T14:37:17;10.80;;;9.70;;
12635;SDS011;6383;50.830;7.210;2024-03-07T14:39:50;11.63;;;10.43;;
12635;SDS011;6383;50.830;7.210;2024-03-07T14:42:22;12.60;;;10.02;;
12635;SDS011;6383;50.830;7.210;2024-03-07T14:44:53;12.73;;;10.07;;
12635;SDS011;6383;50.830;7.210;2024-03-07T14:47:22;10.73;;;9.67;;
12635;SDS011;6383;50.830;7.210;2024-03-07T14:49:51;11.23;;;10.10;;
12635;SDS011;6383;50.830;7.210;2024-03-07T14:52:20;11.00;;;9.85;;
12635;SDS011;6383;50.830;7.210;2024-03-07T14:54:49;10.97;;;9.83;;
12635;SDS011;6383;50.830;7.210;2024-03-07T14:57:18;11.15;;;9.82;;
12635;SDS011;6383;50.830;7.210;2024-03-07T14:59:47;11.00;;;9.80;;
12635;SDS011;6383;50.830;7.210;2024-03-07T15:02:19;9.95;;;9.00;;
12635;SDS011;6383;50.830;7.210;2024-03-07T15:04:48;10.52;;;9.55;;
12635;SDS011;6383;50.830;7.210;2024-03-07T15:07:17;11.43;;;10.32;;
12635;SDS011;6383;50.830;7.210;2024-03-07T15:09:51;10.18;;;9.18;;